Airfield :
LOGIN :

Register | Disclaimer

   EN    FR    IT 

 










Legend :    VFR   Marginal VFR   IFR   Intensive IFR   Very Intensive IFR
Visi :
Ceiling :
>= 8 km
>= 3000ft
5 to 8 km
1000 to 3000 ft
1500m to 5 km
500 to 1000 ft
800 to 1500m
200 to 500 ft
< 800m
< 200 ft
Symbols :   Thunderstorms  Fog  Heavy snow  Heavy precipitations  Wind > 20 kt
SIGMETs :     Misc.  Thunderstorms  Icing  Turbulence  Mountain Waves  Volcanic Ashes







- Airport Elevation : 164 ft
- IATA code : VBY


ESSV - Visby

CURRENT METAR :
  • 160820Z 11007KT 5000 -SN FEW007 BKN024 M00/M01 Q1025 R21/790333

EXPIRED METARs :
  • 160750Z 11007KT 4000 -SN FEW006 SCT008 BKN011 M00/M01 Q1026 R21/790333
  • 160720Z 11006KT 2700 -SN BKN008 M00/M01 Q1026 RESG
  • 160650Z AUTO 10008KT 2400 SG SCT009/// BKN018/// OVC023/// M00/M01 Q1026
  • 160620Z AUTO 11008KT 9999 SG FEW008/// BKN010/// BKN014/// M00/M01 Q1026 RESG
  • 160550Z AUTO 11007KT 4100 -SN VV016 M00/M01 Q1026

TAF TAF ESSV
Valid from the 16 at 09:00 until the 16 at 18:00 UTC


160830Z 1609/1618 11007KT 9999 -SN SCT009 BKN015
TEMPO 1609/1610 2500 SN VV008
BECMG 1610/1612 3000 -SN
TEMPO 1612/1618 1000 SN VV005
No reported NOTAMs for that airfield.



MET'MAP, your aeronautical weather chart ! - Copyright ORBIFLY December 2007 - Disclaimer

ORBIFLY MET'MAP TEAM :

Programming & Development : Alexandra Zaïnal
Concept & Development : Baudouin d'Aumeries
Co-Development & Prog : Marc-Olivier Méhu
Technical & hardware support : Manuel Goepfert

Contact : metmap@orbifly.com




SOURCES & CREDITS :

   NOAA